sensor_id;sensor_type;location;lat;lon;timestamp;temperature;humidity
85959;DHT22;76529;42.660;23.328;2024-03-23T00:52:40;10.20;37.47
85959;DHT22;76529;42.660;23.328;2024-03-23T00:55:05;10.18;37.58
85959;DHT22;76529;42.660;23.328;2024-03-23T00:57:32;10.17;37.61
85959;DHT22;76529;42.660;23.328;2024-03-23T00:59:57;10.14;37.81
85959;DHT22;76529;42.660;23.328;2024-03-23T01:02:22;10.10;37.70
85959;DHT22;76529;42.660;23.328;2024-03-23T01:04:48;10.03;37.81
85959;DHT22;76529;42.660;23.328;2024-03-23T01:07:13;10.03;37.85
85959;DHT22;76529;42.660;23.328;2024-03-23T01:09:39;10.04;37.75
85959;DHT22;76529;42.660;23.328;2024-03-23T01:12:05;10.04;37.74
85959;DHT22;76529;42.660;23.328;2024-03-23T01:14:30;10.03;37.75
85959;DHT22;76529;42.660;23.328;2024-03-23T01:16:56;9.98;37.75
85959;DHT22;76529;42.660;23.328;2024-03-23T01:19:21;9.91;37.90
85959;DHT22;76529;42.660;23.328;2024-03-23T01:21:47;9.89;38.01
85959;DHT22;76529;42.660;23.328;2024-03-23T01:24:13;9.83;38.11
85959;DHT22;76529;42.660;23.328;2024-03-23T01:26:40;9.86;38.22
85959;DHT22;76529;42.660;23.328;2024-03-23T01:29:05;9.84;38.64
85959;DHT22;76529;42.660;23.328;2024-03-23T01:31:30;9.74;38.40
85959;DHT22;76529;42.660;23.328;2024-03-23T01:33:56;9.67;38.47
85959;DHT22;76529;42.660;23.328;2024-03-23T01:36:22;9.63;38.62
85959;DHT22;76529;42.660;23.328;2024-03-23T01:38:47;9.63;38.69
85959;DHT22;76529;42.660;23.328;2024-03-23T01:41:13;9.67;38.53
85959;DHT22;76529;42.660;23.328;2024-03-23T01:43:38;9.69;38.45
85959;DHT22;76529;42.660;23.328;2024-03-23T01:46:04;9.67;38.73
85959;DHT22;76529;42.660;23.328;2024-03-23T01:48:29;9.56;38.61
85959;DHT22;76529;42.660;23.328;2024-03-23T01:50:55;9.50;38.71
85959;DHT22;76529;42.660;23.328;2024-03-23T01:53:20;9.47;38.81
85959;DHT22;76529;42.660;23.328;2024-03-23T01:55:49;9.42;38.88
85959;DHT22;76529;42.660;23.328;2024-03-23T01:58:15;9.42;38.93
85959;DHT22;76529;42.660;23.328;2024-03-23T02:00:41;9.46;38.82
85959;DHT22;76529;42.660;23.328;2024-03-23T02:03:26;9.47;38.53
85959;DHT22;76529;42.660;23.328;2024-03-23T02:05:55;9.45;38.70
85959;DHT22;76529;42.660;23.328;2024-03-23T02:08:22;9.42;38.92
85959;DHT22;76529;42.660;23.328;2024-03-23T02:10:51;9.45;38.80
85959;DHT22;76529;42.660;23.328;2024-03-23T02:13:18;9.46;38.66
85959;DHT22;76529;42.660;23.328;2024-03-23T02:15:44;9.49;38.63
85959;DHT22;76529;42.660;23.328;2024-03-23T02:18:10;9.47;38.51
85959;DHT22;76529;42.660;23.328;2024-03-23T02:20:36;9.43;38.70
85959;DHT22;76529;42.660;23.328;2024-03-23T02:23:02;9.42;38.83
85959;DHT22;76529;42.660;23.328;2024-03-23T02:25:28;9.42;38.86
85959;DHT22;76529;42.660;23.328;2024-03-23T02:27:54;9.42;38.80
85959;DHT22;76529;42.660;23.328;2024-03-23T02:30:20;9.43;38.66
85959;DHT22;76529;42.660;23.328;2024-03-23T02:32:45;9.40;38.61
85959;DHT22;76529;42.660;23.328;2024-03-23T02:35:11;9.38;38.76
85959;DHT22;76529;42.660;23.328;2024-03-23T02:37:37;9.33;38.91
85959;DHT22;76529;42.660;23.328;2024-03-23T02:40:02;9.32;39.05
85959;DHT22;76529;42.660;23.328;2024-03-23T02:42:28;9.32;38.96
85959;DHT22;76529;42.660;23.328;2024-03-23T02:44:54;9.32;39.08
85959;DHT22;76529;42.660;23.328;2024-03-23T02:47:19;9.33;38.99
85959;DHT22;76529;42.660;23.328;2024-03-23T02:49:45;9.29;39.03
85959;DHT22;76529;42.660;23.328;2024-03-23T02:52:10;9.26;39.32
85959;DHT22;76529;42.660;23.328;2024-03-23T02:54:36;9.19;39.35
85959;DHT22;76529;42.660;23.328;2024-03-23T02:57:02;9.14;39.41
85959;DHT22;76529;42.660;23.328;2024-03-23T02:59:27;9.15;39.31
85959;DHT22;76529;42.660;23.328;2024-03-23T03:01:53;9.18;39.29
85959;DHT22;76529;42.660;23.328;2024-03-23T03:04:18;9.14;39.20
85959;DHT22;76529;42.660;23.328;2024-03-23T03:06:47;9.11;39.35
85959;DHT22;76529;42.660;23.328;2024-03-23T03:09:12;9.00;39.59
85959;DHT22;76529;42.660;23.328;2024-03-23T03:11:38;8.95;39.53
85959;DHT22;76529;42.660;23.328;2024-03-23T03:14:03;8.92;39.56
85959;DHT22;76529;42.660;23.328;2024-03-23T03:16:29;8.97;39.59
85959;DHT22;76529;42.660;23.328;2024-03-23T03:18:54;8.97;39.53
85959;DHT22;76529;42.660;23.328;2024-03-23T03:21:21;8.98;39.62
85959;DHT22;76529;42.660;23.328;2024-03-23T03:23:47;9.01;39.67
85959;DHT22;76529;42.660;23.328;2024-03-23T03:26:16;8.95;39.91
85959;DHT22;76529;42.660;23.328;2024-03-23T03:28:41;8.89;39.94
85959;DHT22;76529;42.660;23.328;2024-03-23T03:31:07;8.88;40.02
85959;DHT22;76529;42.660;23.328;2024-03-23T03:33:32;8.89;39.83
85959;DHT22;76529;42.660;23.328;2024-03-23T03:35:58;8.89;39.87
85959;DHT22;76529;42.660;23.328;2024-03-23T03:38:23;8.87;39.96
85959;DHT22;76529;42.660;23.328;2024-03-23T03:40:49;8.85;39.92
85959;DHT22;76529;42.660;23.328;2024-03-23T03:43:14;8.85;39.80
85959;DHT22;76529;42.660;23.328;2024-03-23T03:45:40;8.89;39.72
85959;DHT22;76529;42.660;23.328;2024-03-23T03:48:06;8.88;39.63
85959;DHT22;76529;42.660;23.328;2024-03-23T03:50:31;8.85;39.71
85959;DHT22;76529;42.660;23.328;2024-03-23T03:52:57;8.81;39.92
85959;DHT22;76529;42.660;23.328;2024-03-23T03:55:22;8.75;40.05
85959;DHT22;76529;42.660;23.328;2024-03-23T03:57:48;8.74;40.06
85959;DHT22;76529;42.660;23.328;2024-03-23T04:00:14;8.68;40.09
85959;DHT22;76529;42.660;23.328;2024-03-23T04:02:40;8.64;40.11
85959;DHT22;76529;42.660;23.328;2024-03-23T04:05:06;8.63;40.10
85959;DHT22;76529;42.660;23.328;2024-03-23T04:07:32;8.61;40.24
85959;DHT22;76529;42.660;23.328;2024-03-23T04:09:57;8.63;40.22
85959;DHT22;76529;42.660;23.328;2024-03-23T04:12:23;8.61;40.11
85959;DHT22;76529;42.660;23.328;2024-03-23T04:14:49;8.65;40.02
85959;DHT22;76529;42.660;23.328;2024-03-23T04:17:14;8.64;39.93
85959;DHT22;76529;42.660;23.328;2024-03-23T04:19:40;8.64;39.89
85959;DHT22;76529;42.660;23.328;2024-03-23T04:22:06;8.63;39.97
85959;DHT22;76529;42.660;23.328;2024-03-23T04:24:31;8.63;40.10
85959;DHT22;76529;42.660;23.328;2024-03-23T04:26:57;8.60;40.02
85959;DHT22;76529;42.660;23.328;2024-03-23T04:29:23;8.61;40.18
85959;DHT22;76529;42.660;23.328;2024-03-23T04:31:48;8.56;40.24
85959;DHT22;76529;42.660;23.328;2024-03-23T04:34:14;8.57;40.21
85959;DHT22;76529;42.660;23.328;2024-03-23T04:36:39;8.52;40.32
85959;DHT22;76529;42.660;23.328;2024-03-23T04:39:05;8.46;40.42
85959;DHT22;76529;42.660;23.328;2024-03-23T04:41:34;8.44;40.56
85959;DHT22;76529;42.660;23.328;2024-03-23T04:43:59;8.49;40.47
85959;DHT22;76529;42.660;23.328;2024-03-23T04:46:25;8.50;40.55
85959;DHT22;76529;42.660;23.328;2024-03-23T04:48:50;8.50;40.46
85959;DHT22;76529;42.660;23.328;2024-03-23T04:51:25;8.47;40.24
85959;DHT22;76529;42.660;23.328;2024-03-23T04:53:50;8.46;40.51
85959;DHT22;76529;42.660;23.328;2024-03-23T04:56:16;8.44;40.65
85959;DHT22;76529;42.660;23.328;2024-03-23T04:58:45;8.39;40.70
85959;DHT22;76529;42.660;23.328;2024-03-23T05:01:11;8.43;40.76
85959;DHT22;76529;42.660;23.328;2024-03-23T05:03:36;8.46;40.67
85959;DHT22;76529;42.660;23.328;2024-03-23T05:06:02;8.46;40.65
85959;DHT22;76529;42.660;23.328;2024-03-23T05:08:27;8.50;40.74
85959;DHT22;76529;42.660;23.328;2024-03-23T05:10:53;8.50;41.00
85959;DHT22;76529;42.660;23.328;2024-03-23T05:13:19;8.39;41.14
85959;DHT22;76529;42.660;23.328;2024-03-23T05:15:52;8.35;41.19
85959;DHT22;76529;42.660;23.328;2024-03-23T05:18:17;8.35;41.42
85959;DHT22;76529;42.660;23.328;2024-03-23T05:20:42;8.37;41.58
85959;DHT22;76529;42.660;23.328;2024-03-23T05:23:09;8.44;41.65
85959;DHT22;76529;42.660;23.328;2024-03-23T05:25:34;8.53;41.45
85959;DHT22;76529;42.660;23.328;2024-03-23T05:28:00;8.56;41.42
85959;DHT22;76529;42.660;23.328;2024-03-23T05:30:25;8.61;41.52
85959;DHT22;76529;42.660;23.328;2024-03-23T05:32:51;8.61;41.65
85959;DHT22;76529;42.660;23.328;2024-03-23T05:35:16;8.67;41.66
85959;DHT22;76529;42.660;23.328;2024-03-23T05:37:42;8.73;41.99
85959;DHT22;76529;42.660;23.328;2024-03-23T05:40:07;8.74;41.87
85959;DHT22;76529;42.660;23.328;2024-03-23T05:42:34;8.74;41.83
85959;DHT22;76529;42.660;23.328;2024-03-23T05:45:00;8.78;41.90
85959;DHT22;76529;42.660;23.328;2024-03-23T05:47:25;8.83;41.94
85959;DHT22;76529;42.660;23.328;2024-03-23T05:49:51;8.87;42.07
85959;DHT22;76529;42.660;23.328;2024-03-23T05:52:17;8.89;42.10
85959;DHT22;76529;42.660;23.328;2024-03-23T05:54:43;8.95;42.11
85959;DHT22;76529;42.660;23.328;2024-03-23T05:57:09;9.01;42.15
85959;DHT22;76529;42.660;23.328;2024-03-23T05:59:34;9.00;42.42
85959;DHT22;76529;42.660;23.328;2024-03-23T06:02:00;9.02;42.36
85959;DHT22;76529;42.660;23.328;2024-03-23T06:04:25;9.04;42.50
85959;DHT22;76529;42.660;23.328;2024-03-23T06:06:51;9.11;42.66
85959;DHT22;76529;42.660;23.328;2024-03-23T06:09:20;9.14;42.88
85959;DHT22;76529;42.660;23.328;2024-03-23T06:11:45;9.19;42.73
85959;DHT22;76529;42.660;23.328;2024-03-23T06:14:11;9.25;42.70
85959;DHT22;76529;42.660;23.328;2024-03-23T06:16:37;9.35;42.54
85959;DHT22;76529;42.660;23.328;2024-03-23T06:19:02;9.46;42.53
85959;DHT22;76529;42.660;23.328;2024-03-23T06:21:29;9.56;42.67
85959;DHT22;76529;42.660;23.328;2024-03-23T06:23:55;9.60;42.60
85959;DHT22;76529;42.660;23.328;2024-03-23T06:26:21;9.69;42.77
85959;DHT22;76529;42.660;23.328;2024-03-23T06:28:47;9.72;42.64
85959;DHT22;76529;42.660;23.328;2024-03-23T06:31:12;9.83;42.59
85959;DHT22;76529;42.660;23.328;2024-03-23T06:33:38;9.98;42.57
85959;DHT22;76529;42.660;23.328;2024-03-23T06:36:05;10.17;42.52
85959;DHT22;76529;42.660;23.328;2024-03-23T06:38:31;10.41;42.61
85959;DHT22;76529;42.660;23.328;2024-03-23T06:40:56;10.59;42.61
85959;DHT22;76529;42.660;23.328;2024-03-23T06:43:22;10.75;42.61
85959;DHT22;76529;42.660;23.328;2024-03-23T06:45:54;11.00;42.73
85959;DHT22;76529;42.660;23.328;2024-03-23T06:48:20;11.26;42.82
85959;DHT22;76529;42.660;23.328;2024-03-23T06:50:46;11.55;42.81
85959;DHT22;76529;42.660;23.328;2024-03-23T06:53:12;11.83;42.66
85959;DHT22;76529;42.660;23.328;2024-03-23T06:55:38;12.13;42.80
85959;DHT22;76529;42.660;23.328;2024-03-23T06:58:03;12.48;42.96
85959;DHT22;76529;42.660;23.328;2024-03-23T07:00:29;12.85;42.66
85959;DHT22;76529;42.660;23.328;2024-03-23T07:02:55;13.20;42.71
85959;DHT22;76529;42.660;23.328;2024-03-23T07:05:20;13.60;42.66
85959;DHT22;76529;42.660;23.328;2024-03-23T07:07:46;14.01;42.49
85959;DHT22;76529;42.660;23.328;2024-03-23T07:10:11;14.39;42.31
85959;DHT22;76529;42.660;23.328;2024-03-23T07:12:37;14.79;42.12
85959;DHT22;76529;42.660;23.328;2024-03-23T07:15:03;15.19;41.74
85959;DHT22;76529;42.660;23.328;2024-03-23T07:17:28;15.51;39.63
85959;DHT22;76529;42.660;23.328;2024-03-23T07:19:54;15.55;39.33
85959;DHT22;76529;42.660;23.328;2024-03-23T07:22:19;15.61;39.20
85959;DHT22;76529;42.660;23.328;2024-03-23T07:24:45;15.72;39.43
85959;DHT22;76529;42.660;23.328;2024-03-23T07:27:10;15.92;39.64
85959;DHT22;76529;42.660;23.328;2024-03-23T07:29:36;16.14;39.88
85959;DHT22;76529;42.660;23.328;2024-03-23T07:32:02;16.53;40.03
85959;DHT22;76529;42.660;23.328;2024-03-23T07:34:27;16.89;39.91
85959;DHT22;76529;42.660;23.328;2024-03-23T07:36:53;17.30;39.69
85959;DHT22;76529;42.660;23.328;2024-03-23T07:39:19;17.70;39.04
85959;DHT22;76529;42.660;23.328;2024-03-23T07:41:45;18.11;38.80
85959;DHT22;76529;42.660;23.328;2024-03-23T07:44:10;18.44;38.60
85959;DHT22;76529;42.660;23.328;2024-03-23T07:46:36;18.82;38.40
85959;DHT22;76529;42.660;23.328;2024-03-23T07:49:04;19.17;38.53
85959;DHT22;76529;42.660;23.328;2024-03-23T07:51:30;19.51;38.66
85959;DHT22;76529;42.660;23.328;2024-03-23T07:53:55;19.89;38.46
85959;DHT22;76529;42.660;23.328;2024-03-23T07:56:21;20.34;38.38
85959;DHT22;76529;42.660;23.328;2024-03-23T07:58:47;20.71;36.11
85959;DHT22;76529;42.660;23.328;2024-03-23T08:01:15;20.91;36.02
85959;DHT22;76529;42.660;23.328;2024-03-23T08:03:44;21.05;35.44
85959;DHT22;76529;42.660;23.328;2024-03-23T08:06:14;21.20;35.88
85959;DHT22;76529;42.660;23.328;2024-03-23T08:08:42;21.42;35.28
85959;DHT22;76529;42.660;23.328;2024-03-23T08:11:07;21.54;35.31
85959;DHT22;76529;42.660;23.328;2024-03-23T08:13:34;21.76;35.22
85959;DHT22;76529;42.660;23.328;2024-03-23T08:16:01;21.96;35.01
85959;DHT22;76529;42.660;23.328;2024-03-23T08:18:27;22.18;34.89
85959;DHT22;76529;42.660;23.328;2024-03-23T08:21:00;22.42;34.21
85959;DHT22;76529;42.660;23.328;2024-03-23T08:23:27;22.65;34.73
85959;DHT22;76529;42.660;23.328;2024-03-23T08:25:57;22.83;34.17
85959;DHT22;76529;42.660;23.328;2024-03-23T08:28:23;23.03;33.94
85959;DHT22;76529;42.660;23.328;2024-03-23T08:30:49;23.20;33.32
85959;DHT22;76529;42.660;23.328;2024-03-23T08:33:15;23.30;33.46
85959;DHT22;76529;42.660;23.328;2024-03-23T08:35:41;23.41;32.71
85959;DHT22;76529;42.660;23.328;2024-03-23T08:38:07;23.40;32.26
85959;DHT22;76529;42.660;23.328;2024-03-23T08:40:32;23.28;32.13
85959;DHT22;76529;42.660;23.328;2024-03-23T08:42:58;23.30;32.56
85959;DHT22;76529;42.660;23.328;2024-03-23T08:45:24;23.38;32.46
85959;DHT22;76529;42.660;23.328;2024-03-23T08:47:50;23.51;32.18
85959;DHT22;76529;42.660;23.328;2024-03-23T08:50:15;23.61;31.90
85959;DHT22;76529;42.660;23.328;2024-03-23T08:52:41;23.76;31.34
85959;DHT22;76529;42.660;23.328;2024-03-23T08:55:07;23.85;31.04
85959;DHT22;76529;42.660;23.328;2024-03-23T08:57:32;23.92;31.06
85959;DHT22;76529;42.660;23.328;2024-03-23T08:59:58;24.02;31.16
85959;DHT22;76529;42.660;23.328;2024-03-23T09:02:23;24.13;30.83
85959;DHT22;76529;42.660;23.328;2024-03-23T09:04:49;24.16;30.97
85959;DHT22;76529;42.660;23.328;2024-03-23T09:07:14;24.23;30.56
85959;DHT22;76529;42.660;23.328;2024-03-23T09:09:40;24.22;30.51
85959;DHT22;76529;42.660;23.328;2024-03-23T09:12:06;24.26;30.76
85959;DHT22;76529;42.660;23.328;2024-03-23T09:14:33;24.36;30.65
85959;DHT22;76529;42.660;23.328;2024-03-23T09:16:58;24.43;30.51
85959;DHT22;76529;42.660;23.328;2024-03-23T09:19:28;24.57;30.29
85959;DHT22;76529;42.660;23.328;2024-03-23T09:21:53;24.72;29.71
85959;DHT22;76529;42.660;23.328;2024-03-23T09:24:19;24.81;29.50
85959;DHT22;76529;42.660;23.328;2024-03-23T09:26:44;24.82;28.99
85959;DHT22;76529;42.660;23.328;2024-03-23T09:29:09;24.78;28.30
85959;DHT22;76529;42.660;23.328;2024-03-23T09:31:35;24.70;28.66
85959;DHT22;76529;42.660;23.328;2024-03-23T09:34:01;24.63;28.68
85959;DHT22;76529;42.660;23.328;2024-03-23T09:36:26;24.61;28.52
85959;DHT22;76529;42.660;23.328;2024-03-23T09:38:52;24.61;28.42
85959;DHT22;76529;42.660;23.328;2024-03-23T09:41:17;24.57;28.21
85959;DHT22;76529;42.660;23.328;2024-03-23T09:43:43;24.54;27.94
85959;DHT22;76529;42.660;23.328;2024-03-23T09:46:08;24.43;28.43
85959;DHT22;76529;42.660;23.328;2024-03-23T09:48:34;24.49;28.50
85959;DHT22;76529;42.660;23.328;2024-03-23T09:51:02;24.47;28.39
85959;DHT22;76529;42.660;23.328;2024-03-23T09:53:28;24.46;27.93
85959;DHT22;76529;42.660;23.328;2024-03-23T09:55:53;24.37;28.00
85959;DHT22;76529;42.660;23.328;2024-03-23T09:58:20;24.33;27.98
85959;DHT22;76529;42.660;23.328;2024-03-23T10:00:46;24.30;27.81
85959;DHT22;76529;42.660;23.328;2024-03-23T10:03:11;24.27;27.96
85959;DHT22;76529;42.660;23.328;2024-03-23T10:05:37;24.26;27.62
85959;DHT22;76529;42.660;23.328;2024-03-23T10:10:41;24.19;27.74
85959;DHT22;76529;42.660;23.328;2024-03-23T10:13:07;24.17;27.90
85959;DHT22;76529;42.660;23.328;2024-03-23T10:15:36;24.24;27.79
85959;DHT22;76529;42.660;23.328;2024-03-23T10:18:17;24.29;27.63
85959;DHT22;76529;42.660;23.328;2024-03-23T10:20:43;24.29;27.65
85959;DHT22;76529;42.660;23.328;2024-03-23T10:23:16;24.33;27.61
85959;DHT22;76529;42.660;23.328;2024-03-23T10:25:41;24.33;27.54
85959;DHT22;76529;42.660;23.328;2024-03-23T10:28:07;24.34;27.54
85959;DHT22;76529;42.660;23.328;2024-03-23T10:30:32;24.36;27.51
85959;DHT22;76529;42.660;23.328;2024-03-23T10:33:10;24.39;26.89
85959;DHT22;76529;42.660;23.328;2024-03-23T10:35:39;24.31;27.25
85959;DHT22;76529;42.660;23.328;2024-03-23T10:38:06;24.29;27.02
85959;DHT22;76529;42.660;23.328;2024-03-23T10:40:36;24.29;27.04
85959;DHT22;76529;42.660;23.328;2024-03-23T10:43:03;24.33;27.09
85959;DHT22;76529;42.660;23.328;2024-03-23T10:45:29;24.41;26.97
85959;DHT22;76529;42.660;23.328;2024-03-23T10:47:55;24.39;26.86
85959;DHT22;76529;42.660;23.328;2024-03-23T10:50:22;24.40;26.78
85959;DHT22;76529;42.660;23.328;2024-03-23T10:52:48;24.40;26.75
85959;DHT22;76529;42.660;23.328;2024-03-23T10:55:16;24.41;26.79
85959;DHT22;76529;42.660;23.328;2024-03-23T10:57:55;24.41;26.78
85959;DHT22;76529;42.660;23.328;2024-03-23T11:00:24;24.36;25.74
85959;DHT22;76529;42.660;23.328;2024-03-23T11:02:49;24.29;26.34
85959;DHT22;76529;42.660;23.328;2024-03-23T11:07:50;23.92;25.85
85959;DHT22;76529;42.660;23.328;2024-03-23T11:10:26;23.78;25.97
85959;DHT22;76529;42.660;23.328;2024-03-23T11:12:53;23.76;25.95
85959;DHT22;76529;42.660;23.328;2024-03-23T11:15:18;23.73;26.01
85959;DHT22;76529;42.660;23.328;2024-03-23T11:18:02;23.71;26.18
85959;DHT22;76529;42.660;23.328;2024-03-23T11:20:32;23.71;25.84
85959;DHT22;76529;42.660;23.328;2024-03-23T11:22:58;23.68;25.06
85959;DHT22;76529;42.660;23.328;2024-03-23T11:25:26;23.62;25.81
85959;DHT22;76529;42.660;23.328;2024-03-23T11:28:13;23.58;25.97
85959;DHT22;76529;42.660;23.328;2024-03-23T11:30:38;23.61;26.02
85959;DHT22;76529;42.660;23.328;2024-03-23T11:33:04;23.64;26.00
85959;DHT22;76529;42.660;23.328;2024-03-23T11:35:40;23.68;26.11
85959;DHT22;76529;42.660;23.328;2024-03-23T11:38:15;23.71;26.21
85959;DHT22;76529;42.660;23.328;2024-03-23T11:40:47;23.69;25.84
85959;DHT22;76529;42.660;23.328;2024-03-23T11:43:20;23.59;25.98
85959;DHT22;76529;42.660;23.328;2024-03-23T11:45:49;23.52;25.95
85959;DHT22;76529;42.660;23.328;2024-03-23T11:48:20;23.52;26.03
85959;DHT22;76529;42.660;23.328;2024-03-23T11:50:47;23.52;26.06
85959;DHT22;76529;42.660;23.328;2024-03-23T11:53:20;23.51;26.05
85959;DHT22;76529;42.660;23.328;2024-03-23T11:55:59;23.54;26.03
85959;DHT22;76529;42.660;23.328;2024-03-23T11:58:28;23.52;26.07
85959;DHT22;76529;42.660;23.328;2024-03-23T12:00:56;23.55;25.88
85959;DHT22;76529;42.660;23.328;2024-03-23T12:03:27;23.54;25.88
85959;DHT22;76529;42.660;23.328;2024-03-23T12:06:01;23.52;25.82
85959;DHT22;76529;42.660;23.328;2024-03-23T12:08:34;23.45;25.82
85959;DHT22;76529;42.660;23.328;2024-03-23T12:11:09;23.38;25.89
85959;DHT22;76529;42.660;23.328;2024-03-23T12:13:37;23.28;25.82
85959;DHT22;76529;42.660;23.328;2024-03-23T12:16:13;23.24;25.81
85959;DHT22;76529;42.660;23.328;2024-03-23T12:18:42;23.18;25.46
85959;DHT22;76529;42.660;23.328;2024-03-23T12:21:08;23.07;25.73
85959;DHT22;76529;42.660;23.328;2024-03-23T12:23:35;23.02;25.74
85959;DHT22;76529;42.660;23.328;2024-03-23T12:26:00;22.94;25.85
85959;DHT22;76529;42.660;23.328;2024-03-23T12:28:26;22.87;25.86
85959;DHT22;76529;42.660;23.328;2024-03-23T12:30:52;22.86;25.34
85959;DHT22;76529;42.660;23.328;2024-03-23T12:33:18;22.73;25.58
85959;DHT22;76529;42.660;23.328;2024-03-23T12:35:44;22.66;25.66
85959;DHT22;76529;42.660;23.328;2024-03-23T12:38:09;22.59;25.57
85959;DHT22;76529;42.660;23.328;2024-03-23T12:40:35;22.53;25.61
85959;DHT22;76529;42.660;23.328;2024-03-23T12:43:00;22.49;25.69
85959;DHT22;76529;42.660;23.328;2024-03-23T12:45:26;22.44;25.55
85959;DHT22;76529;42.660;23.328;2024-03-23T12:47:52;22.39;25.50
85959;DHT22;76529;42.660;23.328;2024-03-23T12:50:21;22.31;25.59
85959;DHT22;76529;42.660;23.328;2024-03-23T12:52:46;22.28;25.62
85959;DHT22;76529;42.660;23.328;2024-03-23T12:55:12;22.24;25.63
85959;DHT22;76529;42.660;23.328;2024-03-23T12:57:38;22.22;25.64
85959;DHT22;76529;42.660;23.328;2024-03-23T13:00:04;22.19;25.45
85959;DHT22;76529;42.660;23.328;2024-03-23T13:02:29;22.15;25.54
85959;DHT22;76529;42.660;23.328;2024-03-23T13:04:55;22.14;25.31
85959;DHT22;76529;42.660;23.328;2024-03-23T13:07:22;22.11;25.24
85959;DHT22;76529;42.660;23.328;2024-03-23T13:09:51;22.09;25.32
85959;DHT22;76529;42.660;23.328;2024-03-23T13:12:17;22.07;24.83
85959;DHT22;76529;42.660;23.328;2024-03-23T13:14:44;22.07;25.05
85959;DHT22;76529;42.660;23.328;2024-03-23T13:17:10;22.04;24.98
85959;DHT22;76529;42.660;23.328;2024-03-23T13:19:35;22.04;25.16
85959;DHT22;76529;42.660;23.328;2024-03-23T13:22:01;22.00;23.73
85959;DHT22;76529;42.660;23.328;2024-03-23T13:24:27;21.90;24.46
85959;DHT22;76529;42.660;23.328;2024-03-23T13:26:54;21.78;22.73
85959;DHT22;76529;42.660;23.328;2024-03-23T13:29:20;21.68;23.85
85959;DHT22;76529;42.660;23.328;2024-03-23T13:31:47;21.53;23.50
85959;DHT22;76529;42.660;23.328;2024-03-23T13:34:13;21.45;23.78
85959;DHT22;76529;42.660;23.328;2024-03-23T13:36:41;21.38;23.98
85959;DHT22;76529;42.660;23.328;2024-03-23T13:39:07;21.35;24.03
85959;DHT22;76529;42.660;23.328;2024-03-23T13:41:40;21.30;24.23
85959;DHT22;76529;42.660;23.328;2024-03-23T13:44:06;21.32;24.35
85959;DHT22;76529;42.660;23.328;2024-03-23T13:46:32;21.32;24.44
85959;DHT22;76529;42.660;23.328;2024-03-23T13:48:57;21.30;24.33
85959;DHT22;76529;42.660;23.328;2024-03-23T13:51:24;21.28;23.97
85959;DHT22;76529;42.660;23.328;2024-03-23T13:53:56;21.26;24.28
85959;DHT22;76529;42.660;23.328;2024-03-23T13:56:25;21.25;24.29
85959;DHT22;76529;42.660;23.328;2024-03-23T13:58:50;21.25;24.25
85959;DHT22;76529;42.660;23.328;2024-03-23T14:01:16;21.25;24.25
85959;DHT22;76529;42.660;23.328;2024-03-23T14:03:42;21.25;24.32
85959;DHT22;76529;42.660;23.328;2024-03-23T14:06:09;21.22;24.13
85959;DHT22;76529;42.660;23.328;2024-03-23T14:08:35;21.19;24.04
85959;DHT22;76529;42.660;23.328;2024-03-23T14:11:04;21.15;23.99
85959;DHT22;76529;42.660;23.328;2024-03-23T14:13:30;21.12;24.22
85959;DHT22;76529;42.660;23.328;2024-03-23T14:15:56;21.06;24.18
85959;DHT22;76529;42.660;23.328;2024-03-23T14:18:21;21.05;24.03
85959;DHT22;76529;42.660;23.328;2024-03-23T14:20:51;21.03;24.18
85959;DHT22;76529;42.660;23.328;2024-03-23T14:23:17;21.02;24.21
85959;DHT22;76529;42.660;23.328;2024-03-23T14:25:43;21.02;24.13
85959;DHT22;76529;42.660;23.328;2024-03-23T14:28:08;20.99;24.21
85959;DHT22;76529;42.660;23.328;2024-03-23T14:30:43;20.99;24.27
85959;DHT22;76529;42.660;23.328;2024-03-23T14:33:09;21.01;23.74
85959;DHT22;76529;42.660;23.328;2024-03-23T14:35:34;20.98;24.04
85959;DHT22;76529;42.660;23.328;2024-03-23T14:38:00;20.99;24.04
85959;DHT22;76529;42.660;23.328;2024-03-23T14:40:25;20.99;23.94
85959;DHT22;76529;42.660;23.328;2024-03-23T14:42:54;20.96;23.80
85959;DHT22;76529;42.660;23.328;2024-03-23T14:45:21;20.94;24.00
85959;DHT22;76529;42.660;23.328;2024-03-23T14:47:47;20.95;24.06
85959;DHT22;76529;42.660;23.328;2024-03-23T14:50:13;20.94;24.14
85959;DHT22;76529;42.660;23.328;2024-03-23T14:52:42;20.95;24.03
85959;DHT22;76529;42.660;23.328;2024-03-23T14:55:08;20.92;23.97
85959;DHT22;76529;42.660;23.328;2024-03-23T14:57:34;20.95;24.02
85959;DHT22;76529;42.660;23.328;2024-03-23T15:00:00;20.92;24.02
85959;DHT22;76529;42.660;23.328;2024-03-23T15:02:26;20.94;23.97
85959;DHT22;76529;42.660;23.328;2024-03-23T15:04:54;20.94;24.05
85959;DHT22;76529;42.660;23.328;2024-03-23T15:07:19;20.96;24.13
85959;DHT22;76529;42.660;23.328;2024-03-23T15:09:45;20.95;24.17
85959;DHT22;76529;42.660;23.328;2024-03-23T15:12:10;20.96;24.23
85959;DHT22;76529;42.660;23.328;2024-03-23T15:14:36;20.99;24.25
85959;DHT22;76529;42.660;23.328;2024-03-23T15:17:01;21.01;24.28
85959;DHT22;76529;42.660;23.328;2024-03-23T15:19:32;20.99;24.23
85959;DHT22;76529;42.660;23.328;2024-03-23T15:21:57;20.99;24.14
85959;DHT22;76529;42.660;23.328;2024-03-23T15:24:23;20.98;24.05
85959;DHT22;76529;42.660;23.328;2024-03-23T15:26:48;20.95;24.20
85959;DHT22;76529;42.660;23.328;2024-03-23T15:29:15;20.95;24.17
85959;DHT22;76529;42.660;23.328;2024-03-23T15:31:42;20.94;23.92
85959;DHT22;76529;42.660;23.328;2024-03-23T15:34:08;20.89;23.81
85959;DHT22;76529;42.660;23.328;2024-03-23T15:36:35;20.87;23.89
85959;DHT22;76529;42.660;23.328;2024-03-23T15:39:02;20.85;23.84
85959;DHT22;76529;42.660;23.328;2024-03-23T15:41:28;20.87;23.80
85959;DHT22;76529;42.660;23.328;2024-03-23T15:43:53;20.81;23.78
85959;DHT22;76529;42.660;23.328;2024-03-23T15:46:19;20.81;23.78
85959;DHT22;76529;42.660;23.328;2024-03-23T15:48:44;20.78;23.56
85959;DHT22;76529;42.660;23.328;2024-03-23T15:51:12;20.72;23.73
85959;DHT22;76529;42.660;23.328;2024-03-23T15:53:38;20.71;23.86
85959;DHT22;76529;42.660;23.328;2024-03-23T15:56:04;20.68;23.76
85959;DHT22;76529;42.660;23.328;2024-03-23T15:58:33;20.64;23.78
85959;DHT22;76529;42.660;23.328;2024-03-23T16:01:00;20.61;23.79
85959;DHT22;76529;42.660;23.328;2024-03-23T16:03:27;20.58;23.97
85959;DHT22;76529;42.660;23.328;2024-03-23T16:06:03;20.60;24.07
85959;DHT22;76529;42.660;23.328;2024-03-23T16:08:30;20.60;24.12
85959;DHT22;76529;42.660;23.328;2024-03-23T16:11:03;20.58;24.23
85959;DHT22;76529;42.660;23.328;2024-03-23T16:13:29;20.52;24.24